createdAt,value
2023-04-19T00:00:34.019Z,0
2023-04-19T00:01:50.140Z,0
2023-04-19T00:03:06.287Z,0
2023-04-19T00:04:22.437Z,0
2023-04-19T00:05:38.563Z,0
2023-04-19T00:06:54.697Z,0
2023-04-19T00:08:10.828Z,0
2023-04-19T00:09:26.962Z,0
2023-04-19T00:10:43.107Z,0
2023-04-19T00:11:59.236Z,0
2023-04-19T00:13:15.376Z,0
2023-04-19T00:14:31.504Z,0
2023-04-19T00:15:47.635Z,0
2023-04-19T00:17:03.794Z,0
2023-04-19T00:18:19.926Z,0
2023-04-19T00:19:36.053Z,0
2023-04-19T00:20:52.188Z,0
2023-04-19T00:22:08.326Z,0
2023-04-19T00:23:24.478Z,0
2023-04-19T00:24:40.607Z,0
2023-04-19T00:25:56.741Z,0
2023-04-19T00:27:12.876Z,0
2023-04-19T00:28:29.010Z,0
2023-04-19T00:29:45.208Z,0
2023-04-19T00:31:00.443Z,0
2023-04-19T00:32:15.660Z,0
2023-04-19T00:33:31.792Z,0
2023-04-19T00:34:47.935Z,0
2023-04-19T00:36:04.068Z,0
2023-04-19T00:37:20.205Z,0
2023-04-19T00:38:36.330Z,0
2023-04-19T00:39:52.490Z,0
2023-04-19T00:41:08.612Z,0
2023-04-19T00:42:24.740Z,0
2023-04-19T00:43:40.884Z,0
2023-04-19T00:44:57.008Z,0
2023-04-19T00:46:13.160Z,0
2023-04-19T00:47:29.300Z,0
2023-04-19T00:48:45.428Z,0
2023-04-19T00:50:01.572Z,0
2023-04-19T00:51:17.690Z,0
2023-04-19T00:52:33.841Z,0
2023-04-19T00:53:49.973Z,0
2023-04-19T00:55:06.117Z,0
2023-04-19T00:56:22.252Z,0
2023-04-19T00:57:38.369Z,0
2023-04-19T00:58:54.531Z,0
2023-04-19T01:00:10.650Z,0
2023-04-19T01:01:26.788Z,0
2023-04-19T01:02:42.927Z,0
2023-04-19T01:03:59.118Z,0
2023-04-19T01:05:14.346Z,0
2023-04-19T01:06:30.538Z,0
2023-04-19T01:07:45.753Z,0
2023-04-19T01:09:01.890Z,0
2023-04-19T01:10:18.020Z,0
2023-04-19T01:11:34.170Z,0
2023-04-19T01:12:50.293Z,0
2023-04-19T01:14:06.421Z,0
2023-04-19T01:15:22.573Z,0
2023-04-19T01:16:38.702Z,0
2023-04-19T01:17:54.834Z,0
2023-04-19T01:19:10.978Z,0
2023-04-19T01:20:27.098Z,0
2023-04-19T01:21:43.254Z,0
2023-04-19T01:22:59.384Z,0
2023-04-19T01:24:15.518Z,0
2023-04-19T01:25:31.650Z,0
2023-04-19T01:26:47.795Z,0
2023-04-19T01:28:03.935Z,0
2023-04-19T01:29:20.071Z,0
2023-04-19T01:30:36.202Z,0
2023-04-19T01:31:52.340Z,0
2023-04-19T01:33:08.468Z,0
2023-04-19T01:34:24.611Z,0
2023-04-19T01:35:40.754Z,0
2023-04-19T01:36:56.880Z,0
2023-04-19T01:38:13.023Z,0
2023-04-19T01:39:29.205Z,0
2023-04-19T01:40:44.455Z,0
2023-04-19T01:41:59.648Z,0
2023-04-19T01:43:14.805Z,0
2023-04-19T01:44:30.928Z,0
2023-04-19T01:45:47.078Z,0
2023-04-19T01:47:03.209Z,0
2023-04-19T01:48:19.340Z,0
2023-04-19T01:49:35.475Z,0
2023-04-19T01:50:51.614Z,0
2023-04-19T01:52:07.747Z,0
2023-04-19T01:53:23.879Z,0
2023-04-19T01:54:40.010Z,0
2023-04-19T01:55:56.167Z,0
2023-04-19T01:57:12.289Z,0
2023-04-19T01:58:28.422Z,0
2023-04-19T01:59:44.566Z,0
2023-04-19T02:01:00.688Z,0
2023-04-19T02:02:16.841Z,0
2023-04-19T02:03:32.973Z,0
2023-04-19T02:04:49.120Z,0
2023-04-19T02:06:05.238Z,0
2023-04-19T02:07:21.381Z,0
2023-04-19T02:08:37.531Z,0
2023-04-19T02:09:53.647Z,0
2023-04-19T02:11:09.793Z,0
2023-04-19T02:12:25.928Z,0
2023-04-19T02:13:42.062Z,0
2023-04-19T02:14:58.198Z,0
2023-04-19T02:16:14.346Z,0
2023-04-19T02:17:30.463Z,0
2023-04-19T02:18:46.595Z,0
2023-04-19T02:20:02.741Z,0
2023-04-19T02:21:18.885Z,0
2023-04-19T02:22:35.018Z,0
2023-04-19T02:23:51.151Z,0
2023-04-19T02:25:07.280Z,0
2023-04-19T02:26:23.409Z,0
2023-04-19T02:27:39.565Z,0
2023-04-19T02:28:55.695Z,0
2023-04-19T02:30:11.898Z,0
2023-04-19T02:31:27.119Z,0
2023-04-19T02:32:42.328Z,0
2023-04-19T02:33:58.477Z,0
2023-04-19T02:35:14.598Z,0
2023-04-19T02:36:30.734Z,0
2023-04-19T02:37:46.881Z,0
2023-04-19T02:39:03.007Z,0
2023-04-19T02:40:19.149Z,0
2023-04-19T02:41:35.289Z,0
2023-04-19T02:42:51.408Z,0
2023-04-19T02:44:07.562Z,0
2023-04-19T02:45:23.701Z,0
2023-04-19T02:46:39.822Z,0
2023-04-19T02:47:55.957Z,0
2023-04-19T02:49:12.085Z,0
2023-04-19T02:50:28.251Z,0
2023-04-19T02:51:44.381Z,0
2023-04-19T02:53:00.510Z,0
2023-04-19T02:54:16.644Z,0
2023-04-19T02:55:32.776Z,0
2023-04-19T02:56:48.929Z,0
2023-04-19T02:58:05.055Z,0
2023-04-19T02:59:21.195Z,0
2023-04-19T03:00:37.319Z,0
2023-04-19T03:01:53.461Z,0
2023-04-19T03:03:09.604Z,0
2023-04-19T03:04:25.797Z,0
2023-04-19T03:05:41.062Z,0
2023-04-19T03:06:56.265Z,0
2023-04-19T03:08:12.399Z,0
2023-04-19T03:09:28.528Z,0
2023-04-19T03:10:44.650Z,0
2023-04-19T03:12:00.783Z,0
2023-04-19T03:13:16.948Z,0
2023-04-19T03:14:33.074Z,0
2023-04-19T03:15:49.202Z,0
2023-04-19T03:17:05.347Z,0
2023-04-19T03:18:21.474Z,0
2023-04-19T03:19:37.614Z,0
2023-04-19T03:20:53.756Z,0
2023-04-19T03:22:09.879Z,0
2023-04-19T03:23:26.023Z,0
2023-04-19T03:24:42.157Z,0
2023-04-19T03:25:58.304Z,0
2023-04-19T03:27:14.441Z,0
2023-04-19T03:28:30.563Z,0
2023-04-19T03:29:46.699Z,0
2023-04-19T03:31:02.836Z,0
2023-04-19T03:32:18.972Z,0
2023-04-19T03:33:35.122Z,0
2023-04-19T03:34:51.250Z,0
2023-04-19T03:36:07.383Z,0
2023-04-19T03:37:23.511Z,0
2023-04-19T03:38:39.721Z,0
2023-04-19T03:39:54.963Z,0
2023-04-19T03:41:11.152Z,0
2023-04-19T03:42:26.352Z,0
2023-04-19T03:43:42.488Z,4
2023-04-19T03:44:58.615Z,0
2023-04-19T03:46:14.760Z,4
2023-04-19T03:47:30.886Z,4
2023-04-19T03:48:47.037Z,4
2023-04-19T03:50:03.177Z,8
2023-04-19T03:51:19.293Z,8
2023-04-19T03:52:35.438Z,8
2023-04-19T03:53:51.558Z,8
2023-04-19T03:55:07.725Z,12
2023-04-19T03:56:23.851Z,12
2023-04-19T03:57:39.988Z,20
2023-04-19T03:58:56.123Z,24
2023-04-19T04:00:12.249Z,24
2023-04-19T04:01:28.389Z,32
2023-04-19T04:02:44.529Z,36
2023-04-19T04:04:00.668Z,40
2023-04-19T04:05:16.795Z,48
2023-04-19T04:06:32.932Z,56
2023-04-19T04:07:49.083Z,60
2023-04-19T04:09:05.199Z,68
2023-04-19T04:10:21.335Z,80
2023-04-19T04:11:37.472Z,92
2023-04-19T04:12:53.600Z,100
2023-04-19T04:14:09.805Z,116
2023-04-19T04:15:25.060Z,128
2023-04-19T04:16:40.250Z,144
2023-04-19T04:17:56.392Z,168
2023-04-19T04:19:12.529Z,192
2023-04-19T04:20:28.676Z,220
2023-04-19T04:21:44.809Z,248
2023-04-19T04:23:00.944Z,272
2023-04-19T04:24:17.078Z,300
2023-04-19T04:25:33.221Z,332
2023-04-19T04:26:49.338Z,372
2023-04-19T04:28:05.475Z,412
2023-04-19T04:29:21.623Z,460
2023-04-19T04:30:37.760Z,500
2023-04-19T04:31:53.904Z,548
2023-04-19T04:33:10.026Z,592
2023-04-19T04:34:26.154Z,644
2023-04-19T04:35:42.287Z,692
2023-04-19T04:36:58.451Z,732
2023-04-19T04:38:14.585Z,760
2023-04-19T04:39:30.716Z,776
2023-04-19T04:40:46.840Z,800
2023-04-19T04:42:02.972Z,828
2023-04-19T04:43:19.119Z,844
2023-04-19T04:44:35.255Z,852
2023-04-19T04:45:51.392Z,848
2023-04-19T04:47:07.521Z,836
2023-04-19T04:48:23.714Z,828
2023-04-19T04:49:38.957Z,816
2023-04-19T04:50:54.165Z,804
2023-04-19T04:52:10.297Z,788
2023-04-19T04:53:26.433Z,776
2023-04-19T04:54:42.574Z,768
2023-04-19T04:55:58.707Z,760
2023-04-19T04:57:14.840Z,756
2023-04-19T04:58:30.973Z,756
2023-04-19T04:59:47.114Z,760
2023-04-19T05:01:03.246Z,768
2023-04-19T05:02:19.390Z,776
2023-04-19T05:03:35.531Z,788
2023-04-19T05:04:51.651Z,804
2023-04-19T05:06:07.804Z,816
2023-04-19T05:07:23.943Z,828
2023-04-19T05:08:40.076Z,844
2023-04-19T05:11:12.340Z,868
2023-04-19T05:12:28.472Z,880
2023-04-19T05:13:44.624Z,888
2023-04-19T05:15:00.753Z,900
2023-04-19T05:16:16.873Z,912
2023-04-19T05:17:33.018Z,912
2023-04-19T05:20:05.294Z,936
2023-04-19T05:21:21.437Z,940
2023-04-19T05:22:37.628Z,952
2023-04-19T05:23:52.861Z,960
2023-04-19T05:25:09.043Z,972
2023-04-19T05:27:40.383Z,1004
2023-04-19T05:28:56.528Z,1016
2023-04-19T05:30:12.679Z,1016
2023-04-19T05:31:28.800Z,1028
2023-04-19T05:32:44.932Z,1036
2023-04-19T05:34:01.067Z,1052
2023-04-19T05:35:17.222Z,1064
2023-04-19T05:36:33.352Z,1080
2023-04-19T05:37:49.476Z,1092
2023-04-19T05:39:05.624Z,1116
2023-04-19T05:40:21.755Z,1132
2023-04-19T05:41:37.892Z,1156
2023-04-19T05:42:54.033Z,1192
2023-04-19T05:44:10.173Z,1224
2023-04-19T05:45:26.287Z,1248
2023-04-19T05:46:42.440Z,1284
2023-04-19T05:47:58.000Z,1320
2023-04-19T05:49:14.714Z,1356
2023-04-19T05:50:30.843Z,1396
2023-04-19T05:51:46.967Z,1412
2023-04-19T05:53:03.104Z,1428
2023-04-19T05:54:19.250Z,1456
2023-04-19T05:55:35.395Z,1504
2023-04-19T05:56:51.514Z,1552
2023-04-19T05:58:07.706Z,1568
2023-04-19T05:59:22.948Z,1592
2023-04-19T06:00:38.152Z,1588
2023-04-19T06:01:53.318Z,1588
2023-04-19T06:03:09.469Z,1612
2023-04-19T06:04:25.591Z,1624
2023-04-19T06:05:41.716Z,1616
2023-04-19T06:06:57.859Z,1652
2023-04-19T06:08:13.990Z,1640
2023-04-19T06:09:30.145Z,1664
2023-04-19T06:10:46.272Z,1696
2023-04-19T06:12:02.410Z,1732
2023-04-19T06:13:18.543Z,1784
2023-04-19T06:14:34.679Z,1824
2023-04-19T06:15:50.811Z,1852
2023-04-19T06:17:06.947Z,1896
2023-04-19T06:18:23.086Z,1388
2023-04-19T06:19:39.214Z,1404
2023-04-19T06:22:11.503Z,1440
2023-04-19T06:23:27.632Z,1468
2023-04-19T06:24:43.761Z,1488
2023-04-19T06:25:59.889Z,1508
2023-04-19T06:27:16.035Z,1552
2023-04-19T06:28:32.185Z,1572
2023-04-19T06:29:48.305Z,1596
2023-04-19T06:31:04.453Z,1636
2023-04-19T06:32:20.582Z,1672
2023-04-19T06:33:36.721Z,1704
2023-04-19T06:34:52.851Z,1736
2023-04-19T06:36:08.989Z,1768
2023-04-19T06:37:25.121Z,1796
2023-04-19T06:38:41.262Z,1840
2023-04-19T06:39:57.396Z,1860
2023-04-19T06:42:29.682Z,1936
2023-04-19T06:43:45.807Z,1940
2023-04-19T06:45:01.946Z,1960
2023-04-19T06:46:18.070Z,1968
2023-04-19T06:47:34.211Z,1992
2023-04-19T06:48:50.000Z,2004
2023-04-19T06:50:05.652Z,2024
2023-04-19T06:51:20.859Z,2044
2023-04-19T06:52:36.993Z,2064
2023-04-19T06:53:53.125Z,2080
2023-04-19T06:55:09.267Z,2104
2023-04-19T06:56:25.391Z,2124
2023-04-19T06:57:41.547Z,2136
2023-04-19T06:58:57.667Z,2152
2023-04-19T07:00:13.812Z,2180
2023-04-19T07:01:29.933Z,2204
2023-04-19T07:02:46.083Z,2212
2023-04-19T07:04:02.226Z,2236
2023-04-19T07:06:34.492Z,2276
2023-04-19T07:07:50.627Z,2300
2023-04-19T07:09:06.757Z,2332
2023-04-19T07:10:22.910Z,2348
2023-04-19T07:11:39.042Z,2360
2023-04-19T07:12:55.160Z,2420
2023-04-19T07:14:11.298Z,2464
2023-04-19T07:15:27.435Z,2496
2023-04-19T07:16:43.586Z,2568
2023-04-19T07:17:59.728Z,2624
2023-04-19T07:19:15.860Z,2696
2023-04-19T07:20:31.980Z,3236
2023-04-19T07:21:48.121Z,22528
2023-04-19T07:23:04.319Z,32512
2023-04-19T07:24:19.589Z,33664
2023-04-19T07:25:34.848Z,35616
2023-04-19T07:26:50.096Z,36416
2023-04-19T07:28:05.297Z,35456
2023-04-19T07:29:21.442Z,32480
2023-04-19T07:30:37.578Z,34688
2023-04-19T07:31:53.706Z,36992
2023-04-19T07:33:09.841Z,37984
2023-04-19T07:34:25.978Z,40224
2023-04-19T07:35:42.115Z,40448
2023-04-19T07:36:58.264Z,41952
2023-04-19T07:38:14.401Z,42752
2023-04-19T07:39:30.537Z,43424
2023-04-19T07:40:46.652Z,43296
2023-04-19T07:42:02.787Z,43360
2023-04-19T07:43:18.945Z,43904
2023-04-19T07:44:35.074Z,43424
2023-04-19T07:45:51.218Z,44128
2023-04-19T07:47:07.354Z,43872
2023-04-19T07:48:23.484Z,44096
2023-04-19T07:49:39.631Z,44224
2023-04-19T07:50:55.758Z,45504
2023-04-19T07:52:11.901Z,46080
2023-04-19T07:53:28.000Z,44320
2023-04-19T07:54:44.165Z,44672
2023-04-19T07:56:00.317Z,45312
2023-04-19T07:57:16.436Z,45600
2023-04-19T07:58:32.564Z,43552
2023-04-19T07:59:48.766Z,44768
2023-04-19T08:01:03.980Z,45920
2023-04-19T08:02:20.113Z,46592
2023-04-19T08:03:36.248Z,44480
2023-04-19T08:04:52.378Z,46688
2023-04-19T08:06:08.507Z,48864
2023-04-19T08:07:24.660Z,50400
2023-04-19T08:08:40.785Z,52384
2023-04-19T08:09:56.924Z,53728
2023-04-19T08:11:13.059Z,55040
2023-04-19T08:12:29.193Z,56672
2023-04-19T08:13:45.335Z,57856
2023-04-19T08:15:01.483Z,58400
2023-04-19T08:16:17.606Z,57376
2023-04-19T08:17:33.733Z,55360
2023-04-19T08:18:49.884Z,55200
2023-04-19T08:20:06.033Z,55936
2023-04-19T08:21:22.151Z,55168
2023-04-19T08:22:38.297Z,55072
2023-04-19T08:23:54.435Z,54336
2023-04-19T08:25:10.562Z,55808
2023-04-19T08:26:26.708Z,55808
2023-04-19T08:27:42.841Z,56864
2023-04-19T08:28:58.983Z,57568
2023-04-19T08:30:15.113Z,58208
2023-04-19T08:31:31.238Z,58432
2023-04-19T08:32:47.457Z,59584
2023-04-19T08:34:02.700Z,60096
2023-04-19T08:35:17.899Z,60352
2023-04-19T08:36:34.047Z,61344
2023-04-19T08:37:50.181Z,61888
2023-04-19T08:39:06.303Z,63552
2023-04-19T08:40:22.446Z,63136
2023-04-19T08:41:38.585Z,62176
2023-04-19T08:42:54.733Z,61504
2023-04-19T08:44:10.864Z,62080
2023-04-19T08:45:27.003Z,62080
2023-04-19T08:46:43.123Z,61088
2023-04-19T08:47:59.258Z,60384
2023-04-19T08:49:15.402Z,61792
2023-04-19T08:50:31.546Z,62048
2023-04-19T08:51:47.670Z,64640
2023-04-19T08:53:03.806Z,66112
2023-04-19T08:54:19.957Z,68928
2023-04-19T08:55:36.104Z,68160
2023-04-19T08:56:52.237Z,68096
2023-04-19T08:58:08.365Z,67776
2023-04-19T08:59:24.490Z,68128
2023-04-19T09:00:40.630Z,68416
2023-04-19T09:01:56.776Z,67680
2023-04-19T09:03:12.918Z,69376
2023-04-19T09:04:29.048Z,71744
2023-04-19T09:05:45.182Z,74912
2023-04-19T09:07:01.381Z,80032
2023-04-19T09:08:16.615Z,84448
2023-04-19T09:09:31.834Z,91936
2023-04-19T09:10:47.954Z,101376
2023-04-19T09:12:04.099Z,107232
2023-04-19T09:13:20.245Z,101408
2023-04-19T09:14:36.371Z,79904
2023-04-19T09:15:52.511Z,54528
2023-04-19T09:17:08.636Z,33408
2023-04-19T09:18:24.785Z,19104
2023-04-19T09:19:40.937Z,18272
2023-04-19T09:20:57.054Z,18240
2023-04-19T09:22:13.192Z,18304
2023-04-19T09:23:29.332Z,18368
2023-04-19T09:24:45.482Z,18432
2023-04-19T09:26:01.618Z,18944
2023-04-19T09:27:17.746Z,19296
2023-04-19T09:28:33.886Z,19840
2023-04-19T09:29:50.027Z,19776
2023-04-19T09:31:06.168Z,20256
2023-04-19T09:32:22.305Z,20480
2023-04-19T09:33:38.428Z,20864
2023-04-19T09:34:54.574Z,21344
2023-04-19T09:36:10.713Z,21600
2023-04-19T09:37:26.862Z,21984
2023-04-19T09:38:42.985Z,22336
2023-04-19T09:39:59.129Z,23008
2023-04-19T09:41:15.318Z,23488
2023-04-19T09:42:30.553Z,24064
2023-04-19T09:43:46.752Z,24768
2023-04-19T09:45:01.967Z,25408
2023-04-19T09:46:18.102Z,25952
2023-04-19T09:47:34.244Z,26784
2023-04-19T09:48:50.368Z,27200
2023-04-19T09:50:06.509Z,27840
2023-04-19T09:51:22.652Z,27968
2023-04-19T09:52:38.787Z,28672
2023-04-19T09:53:54.928Z,29152
2023-04-19T09:55:11.070Z,29728
2023-04-19T09:56:27.193Z,30016
2023-04-19T09:57:43.331Z,30816
2023-04-19T09:58:59.473Z,31616
2023-04-19T10:00:15.610Z,31616
2023-04-19T10:01:31.756Z,31840
2023-04-19T10:02:47.889Z,32480
2023-04-19T10:04:04.023Z,33184
2023-04-19T10:05:20.154Z,33344
2023-04-19T10:06:36.299Z,34432
2023-04-19T10:07:52.450Z,35488
2023-04-19T10:09:08.573Z,35936
2023-04-19T10:10:24.707Z,36832
2023-04-19T10:11:40.845Z,37472
2023-04-19T10:12:56.998Z,37376
2023-04-19T10:14:13.134Z,38016
2023-04-19T10:15:29.273Z,38208
2023-04-19T10:16:45.469Z,38912
2023-04-19T10:18:00.697Z,39232
2023-04-19T10:19:15.918Z,39808
2023-04-19T10:20:31.061Z,39904
2023-04-19T10:21:47.213Z,39296
2023-04-19T10:23:03.351Z,40512
2023-04-19T10:24:19.477Z,41216
2023-04-19T10:25:35.618Z,40704
2023-04-19T10:26:51.759Z,41696
2023-04-19T10:28:07.909Z,42240
2023-04-19T10:29:24.038Z,42592
2023-04-19T10:30:40.172Z,42112
2023-04-19T10:31:56.300Z,42528
2023-04-19T10:33:12.442Z,42528
2023-04-19T10:34:28.582Z,42784
2023-04-19T10:35:44.729Z,43456
2023-04-19T10:37:00.861Z,42912
2023-04-19T10:38:16.988Z,43296
2023-04-19T10:39:33.132Z,43424
2023-04-19T10:40:49.284Z,43264
2023-04-19T10:42:05.406Z,43776
2023-04-19T10:43:21.556Z,43488
2023-04-19T10:44:37.686Z,43904
2023-04-19T10:45:53.821Z,44224
2023-04-19T10:47:09.980Z,44000
2023-04-19T10:48:26.097Z,44384
2023-04-19T10:49:42.244Z,44320
2023-04-19T10:50:58.388Z,44544
2023-04-19T10:52:14.506Z,44416
2023-04-19T10:53:30.666Z,44224
2023-04-19T10:54:46.797Z,43776
2023-04-19T10:56:02.939Z,43936
2023-04-19T10:57:19.064Z,44064
2023-04-19T10:58:35.201Z,43968
2023-04-19T10:59:51.358Z,43584
2023-04-19T11:01:07.499Z,43776
2023-04-19T11:02:23.633Z,43648
2023-04-19T11:03:39.760Z,43712
2023-04-19T11:04:55.891Z,43552
2023-04-19T11:06:12.048Z,43456
2023-04-19T11:07:28.241Z,43104
2023-04-19T11:08:43.496Z,42784
2023-04-19T11:09:58.701Z,42848
2023-04-19T11:11:14.828Z,42976
2023-04-19T11:12:30.964Z,42848
2023-04-19T11:13:47.105Z,42880
2023-04-19T11:15:03.240Z,3764
2023-04-19T11:16:19.379Z,42464
2023-04-19T11:17:35.527Z,40832
2023-04-19T11:18:51.651Z,40672
2023-04-19T11:20:07.801Z,40480
2023-04-19T11:21:23.934Z,40384
2023-04-19T11:22:40.072Z,38560
2023-04-19T11:23:56.207Z,37792
2023-04-19T11:25:12.349Z,37440
2023-04-19T11:26:28.480Z,36704
2023-04-19T11:27:44.623Z,33792
2023-04-19T11:29:00.763Z,32320
2023-04-19T11:30:16.890Z,21440
2023-04-19T11:31:33.027Z,5444
2023-04-19T11:32:49.160Z,5532
2023-04-19T11:34:05.298Z,4000
2023-04-19T11:35:21.462Z,2956
2023-04-19T11:36:37.585Z,3312
2023-04-19T11:37:53.722Z,3192
2023-04-19T11:39:09.854Z,3204
2023-04-19T11:40:25.990Z,3676
2023-04-19T11:41:42.191Z,3464
2023-04-19T11:42:57.453Z,2936
2023-04-19T11:44:12.657Z,3856
2023-04-19T11:45:28.815Z,3644
2023-04-19T11:46:44.949Z,3576
2023-04-19T11:48:01.086Z,3516
2023-04-19T11:49:17.202Z,3652
2023-04-19T11:50:33.355Z,3760
2023-04-19T11:51:49.502Z,3432
2023-04-19T11:53:05.621Z,3676
2023-04-19T11:54:21.768Z,3644
2023-04-19T11:55:37.888Z,3564
2023-04-19T11:56:54.026Z,3668
2023-04-19T11:58:10.182Z,3952
2023-04-19T11:59:26.315Z,3864
2023-04-19T12:00:42.440Z,4700
2023-04-19T12:01:58.569Z,4928
2023-04-19T12:03:14.715Z,4848
2023-04-19T12:04:30.853Z,3980
2023-04-19T12:05:46.988Z,3824
2023-04-19T12:07:03.136Z,5124
2023-04-19T12:08:19.253Z,5504
2023-04-19T12:09:35.402Z,6000
2023-04-19T12:10:51.543Z,5500
2023-04-19T12:12:07.678Z,5176
2023-04-19T12:13:23.813Z,5188
2023-04-19T12:14:39.944Z,4716
2023-04-19T12:15:56.129Z,3864
2023-04-19T12:17:11.379Z,3504
2023-04-19T12:18:27.579Z,3764
2023-04-19T12:19:42.774Z,3924
2023-04-19T12:20:58.911Z,4212
2023-04-19T12:22:15.049Z,4112
2023-04-19T12:23:31.188Z,4152
2023-04-19T12:24:47.320Z,3412
2023-04-19T12:26:03.458Z,3448
2023-04-19T12:27:19.607Z,3360
2023-04-19T12:28:35.734Z,3080
2023-04-19T12:29:51.879Z,2760
2023-04-19T12:31:08.013Z,2476
2023-04-19T12:32:24.136Z,3076
2023-04-19T12:33:40.280Z,2928
2023-04-19T12:34:56.413Z,2880
2023-04-19T12:36:12.542Z,2816
2023-04-19T12:37:28.683Z,2636
2023-04-19T12:38:44.817Z,2592
2023-04-19T12:40:00.967Z,2580
2023-04-19T12:41:17.098Z,2528
2023-04-19T12:42:33.228Z,2472
2023-04-19T12:43:49.361Z,2444
2023-04-19T12:45:05.502Z,2408
2023-04-19T12:46:21.658Z,2384
2023-04-19T12:47:37.787Z,2584
2023-04-19T12:48:53.908Z,3040
2023-04-19T12:50:10.049Z,3408
2023-04-19T12:51:26.235Z,3788
2023-04-19T12:52:41.474Z,2960
2023-04-19T12:53:56.681Z,2716
2023-04-19T12:55:12.827Z,2592
2023-04-19T12:56:28.971Z,3024
2023-04-19T12:57:45.111Z,3260
2023-04-19T12:59:01.243Z,3728
2023-04-19T13:00:17.368Z,3944
2023-04-19T13:01:33.511Z,4248
2023-04-19T13:02:49.652Z,4172
2023-04-19T13:04:05.787Z,3468
2023-04-19T13:05:21.913Z,3364
2023-04-19T13:06:38.059Z,3260
2023-04-19T13:07:54.181Z,3264
2023-04-19T13:09:10.327Z,3120
2023-04-19T13:10:26.472Z,2860
2023-04-19T13:11:42.594Z,3104
2023-04-19T13:12:58.726Z,3048
2023-04-19T13:14:14.873Z,2780
2023-04-19T13:15:31.005Z,3140
2023-04-19T13:16:47.149Z,3340
2023-04-19T13:18:03.286Z,3404
2023-04-19T13:19:19.424Z,3820
2023-04-19T13:20:35.553Z,4660
2023-04-19T13:21:51.690Z,4696
2023-04-19T13:23:07.823Z,4996
2023-04-19T13:24:23.961Z,4468
2023-04-19T13:25:40.165Z,3412
2023-04-19T13:26:55.401Z,2816
2023-04-19T13:28:10.605Z,2776
2023-04-19T13:29:25.756Z,3056
2023-04-19T13:30:41.899Z,3216
2023-04-19T13:31:58.036Z,3536
2023-04-19T13:33:14.163Z,4260
2023-04-19T13:34:30.315Z,4648
2023-04-19T13:35:46.434Z,4712
2023-04-19T13:37:02.583Z,4956
2023-04-19T13:38:18.720Z,5288
2023-04-19T13:39:34.853Z,4836
2023-04-19T13:40:50.982Z,4444
2023-04-19T13:42:07.112Z,4940
2023-04-19T13:43:23.263Z,4660
2023-04-19T13:44:39.403Z,4268
2023-04-19T13:45:55.554Z,3924
2023-04-19T13:47:11.668Z,3924
2023-04-19T13:48:27.803Z,4020
2023-04-19T13:49:43.956Z,3964
2023-04-19T13:51:00.081Z,3592
2023-04-19T13:52:16.226Z,3180
2023-04-19T13:53:32.358Z,3172
2023-04-19T13:54:48.497Z,2916
2023-04-19T13:56:04.632Z,2428
2023-04-19T13:57:20.772Z,2204
2023-04-19T13:58:36.907Z,2148
2023-04-19T13:59:53.032Z,2428
2023-04-19T14:01:09.168Z,2968
2023-04-19T14:02:25.313Z,3424
2023-04-19T14:03:41.446Z,3292
2023-04-19T14:04:57.575Z,3564
2023-04-19T14:06:13.727Z,3028
2023-04-19T14:07:29.845Z,2288
2023-04-19T14:08:46.002Z,2004
2023-04-19T14:10:02.126Z,2020
2023-04-19T14:11:18.270Z,2156
2023-04-19T14:12:34.393Z,2108
2023-04-19T14:13:50.524Z,2152
2023-04-19T14:15:06.678Z,2500
2023-04-19T14:16:22.864Z,3140
2023-04-19T14:17:38.114Z,3960
2023-04-19T14:18:53.328Z,4440
2023-04-19T14:20:09.445Z,4216
2023-04-19T14:21:25.579Z,3584
2023-04-19T14:22:41.725Z,2832
2023-04-19T14:23:57.848Z,2164
2023-04-19T14:25:14.006Z,1784
2023-04-19T14:26:30.137Z,1608
2023-04-19T14:27:46.258Z,1608
2023-04-19T14:29:02.401Z,1892
2023-04-19T14:30:18.531Z,2368
2023-04-19T14:31:34.675Z,2252
2023-04-19T14:32:50.811Z,1968
2023-04-19T14:34:06.946Z,1772
2023-04-19T14:35:23.085Z,1712
2023-04-19T14:36:39.215Z,1572
2023-04-19T14:37:55.359Z,1496
2023-04-19T14:39:11.500Z,1488
2023-04-19T14:40:27.625Z,1444
2023-04-19T14:41:43.752Z,1892
2023-04-19T14:42:59.904Z,2624
2023-04-19T14:44:16.044Z,2388
2023-04-19T14:45:32.172Z,1896
2023-04-19T14:46:48.315Z,1920
2023-04-19T14:48:04.449Z,2556
2023-04-19T14:49:20.577Z,3088
2023-04-19T14:50:36.799Z,3224
2023-04-19T14:51:52.029Z,3288
2023-04-19T14:53:08.224Z,3548
2023-04-19T14:54:23.429Z,3520
2023-04-19T14:55:39.552Z,3264
2023-04-19T14:56:55.685Z,2916
2023-04-19T14:58:11.820Z,2696
2023-04-19T14:59:27.958Z,2656
2023-04-19T15:00:44.111Z,2652
2023-04-19T15:02:00.243Z,2140
2023-04-19T15:03:16.383Z,1660
2023-04-19T15:04:32.513Z,1436
2023-04-19T15:05:48.631Z,1408
2023-04-19T15:07:04.782Z,1360
2023-04-19T15:08:20.921Z,1268
2023-04-19T15:09:37.048Z,1184
2023-04-19T15:10:53.199Z,1144
2023-04-19T15:12:09.324Z,1120
2023-04-19T15:13:25.474Z,1112
2023-04-19T15:14:41.594Z,1100
2023-04-19T15:15:57.742Z,1084
2023-04-19T15:17:13.867Z,1072
2023-04-19T15:18:29.994Z,1068
2023-04-19T15:19:46.148Z,1116
2023-04-19T15:21:02.285Z,1156
2023-04-19T15:22:18.424Z,1148
2023-04-19T15:23:34.561Z,1100
2023-04-19T15:24:50.690Z,1052
2023-04-19T15:26:06.901Z,1032
2023-04-19T15:27:22.123Z,1040
2023-04-19T15:28:37.343Z,1008
2023-04-19T15:29:53.491Z,992
2023-04-19T15:31:09.618Z,996
2023-04-19T15:32:25.755Z,988
2023-04-19T15:33:41.880Z,984
2023-04-19T15:34:58.014Z,984
2023-04-19T15:36:14.154Z,976
2023-04-19T15:37:30.288Z,968
2023-04-19T15:38:46.436Z,964
2023-04-19T15:40:02.566Z,964
2023-04-19T15:41:18.692Z,972
2023-04-19T15:42:34.846Z,976
2023-04-19T15:43:50.970Z,972
2023-04-19T15:45:07.108Z,952
2023-04-19T15:46:23.241Z,928
2023-04-19T15:47:39.375Z,972
2023-04-19T15:48:55.533Z,972
2023-04-19T15:50:11.652Z,996
2023-04-19T15:51:27.795Z,1004
2023-04-19T15:52:43.917Z,1032
2023-04-19T15:54:00.058Z,1220
2023-04-19T15:55:16.197Z,1488
2023-04-19T15:56:32.340Z,1720
2023-04-19T15:57:48.464Z,1724
2023-04-19T15:59:04.597Z,1740
2023-04-19T16:00:20.793Z,1736
2023-04-19T16:01:36.061Z,1604
2023-04-19T16:02:51.254Z,1452
2023-04-19T16:04:07.400Z,1292
2023-04-19T16:05:23.549Z,1144
2023-04-19T16:06:39.669Z,984
2023-04-19T16:07:55.820Z,944
2023-04-19T16:09:11.948Z,996
2023-04-19T16:10:28.078Z,1020
2023-04-19T16:11:44.232Z,956
2023-04-19T16:13:00.350Z,896
2023-04-19T16:14:16.495Z,892
2023-04-19T16:15:32.622Z,928
2023-04-19T16:16:48.763Z,960
2023-04-19T16:18:04.917Z,896
2023-04-19T16:19:21.050Z,896
2023-04-19T16:20:37.183Z,924
2023-04-19T16:21:53.308Z,956
2023-04-19T16:23:09.449Z,924
2023-04-19T16:24:25.597Z,932
2023-04-19T16:25:41.730Z,964
2023-04-19T16:26:57.858Z,1092
2023-04-19T16:28:13.995Z,1352
2023-04-19T16:29:30.131Z,1100
2023-04-19T16:30:46.279Z,980
2023-04-19T16:32:02.409Z,1024
2023-04-19T16:33:18.527Z,1104
2023-04-19T16:34:34.727Z,1120
2023-04-19T16:35:49.962Z,1176
2023-04-19T16:37:06.168Z,1408
2023-04-19T16:38:21.366Z,1732
2023-04-19T16:39:37.497Z,1784
2023-04-19T16:40:53.657Z,1680
2023-04-19T16:42:09.775Z,1564
2023-04-19T16:43:25.916Z,1352
2023-04-19T16:44:42.046Z,1236
2023-04-19T16:45:58.176Z,1060
2023-04-19T16:47:14.333Z,912
2023-04-19T16:48:30.459Z,816
2023-04-19T16:49:46.605Z,720
2023-04-19T16:51:02.721Z,624
2023-04-19T16:52:18.861Z,544
2023-04-19T16:53:35.008Z,532
2023-04-19T16:54:51.141Z,536
2023-04-19T16:56:07.277Z,528
2023-04-19T16:57:23.408Z,532
2023-04-19T16:58:39.553Z,460
2023-04-19T16:59:55.694Z,396
2023-04-19T17:01:11.822Z,332
2023-04-19T17:02:27.962Z,336
2023-04-19T17:03:44.091Z,416
2023-04-19T17:05:00.227Z,516
2023-04-19T17:06:16.378Z,480
2023-04-19T17:07:32.509Z,520
2023-04-19T17:08:48.647Z,616
2023-04-19T17:10:04.838Z,736
2023-04-19T17:11:20.068Z,912
2023-04-19T17:12:35.277Z,1068
2023-04-19T17:13:50.417Z,1120
2023-04-19T17:15:06.567Z,1064
2023-04-19T17:16:22.709Z,1032
2023-04-19T17:17:38.843Z,1008
2023-04-19T17:18:54.984Z,828
2023-04-19T17:20:11.099Z,736
2023-04-19T17:21:27.263Z,708